createdAt,value
2022-11-12T00:01:57.632Z,40.67
2022-11-12T00:04:27.390Z,28.97
2022-11-12T00:06:55.526Z,32.93
2022-11-12T00:09:23.647Z,37.60
2022-11-12T00:11:51.904Z,32.67
2022-11-12T00:14:20.014Z,31.57
2022-11-12T00:16:47.903Z,30.77
2022-11-12T00:19:15.782Z,35.10
2022-11-12T00:21:45.071Z,30.63
2022-11-12T00:24:16.050Z,36.67
2022-11-12T00:26:44.129Z,29.70
2022-11-12T00:29:12.042Z,32.23
2022-11-12T00:31:40.110Z,32.43
2022-11-12T00:34:08.023Z,38.07
2022-11-12T00:36:36.656Z,31.47
2022-11-12T00:39:06.768Z,34.73
2022-11-12T00:41:34.733Z,53.17
2022-11-12T00:44:02.635Z,48.40
2022-11-12T00:46:30.803Z,35.67
2022-11-12T00:48:58.720Z,24.53
2022-11-12T00:51:26.550Z,26.00
2022-11-12T00:53:54.440Z,25.47
2022-11-12T00:56:23.851Z,32.43
2022-11-12T00:58:51.987Z,40.70
2022-11-12T01:01:20.420Z,35.13
2022-11-12T01:03:50.116Z,48.40
2022-11-12T01:06:21.050Z,35.63
2022-11-12T01:08:51.895Z,34.63
2022-11-12T01:11:25.090Z,27.17
2022-11-12T01:13:56.673Z,49.77
2022-11-12T01:16:26.707Z,57.67
2022-11-12T01:18:55.805Z,90.07
2022-11-12T01:21:25.281Z,63.17
2022-11-12T01:23:53.258Z,25.80
2022-11-12T01:26:23.774Z,35.17
2022-11-12T01:28:51.715Z,39.90
2022-11-12T01:31:21.682Z,40.67
2022-11-12T01:33:53.627Z,27.07
2022-11-12T01:36:25.827Z,34.43
2022-11-12T01:38:54.548Z,35.13
2022-11-12T01:41:26.122Z,37.27
2022-11-12T01:44:09.390Z,34.07
2022-11-12T01:46:41.756Z,37.03
2022-11-12T01:49:15.468Z,45.20
2022-11-12T01:51:48.763Z,45.97
2022-11-12T01:54:19.048Z,28.53
2022-11-12T01:56:50.607Z,38.47
2022-11-12T01:59:23.657Z,36.83
2022-11-12T02:01:51.542Z,54.07
2022-11-12T02:04:19.856Z,32.40
2022-11-12T02:06:50.504Z,58.40
2022-11-12T02:09:19.022Z,30.47
2022-11-12T02:11:48.419Z,29.47
2022-11-12T02:14:15.425Z,46.20
2022-11-12T02:16:45.999Z,33.83
2022-11-12T02:19:16.997Z,38.37
2022-11-12T02:21:47.505Z,60.27
2022-11-12T02:24:36.843Z,44.97
2022-11-12T02:27:06.130Z,37.33
2022-11-12T02:29:34.372Z,60.17
2022-11-12T02:32:02.264Z,74.93
2022-11-12T02:34:30.155Z,77.03
2022-11-12T02:36:59.470Z,40.33
2022-11-12T02:39:27.425Z,94.57
2022-11-12T02:41:55.346Z,33.80
2022-11-12T02:44:23.293Z,35.77
2022-11-12T02:46:51.217Z,24.37
2022-11-12T02:49:19.177Z,36.70
2022-11-12T02:51:47.099Z,36.10
2022-11-12T02:54:16.402Z,41.00
2022-11-12T02:56:48.766Z,48.47
2022-11-12T02:59:16.693Z,41.77
2022-11-12T03:01:46.938Z,52.40
2022-11-12T03:04:14.812Z,38.17
2022-11-12T03:06:42.839Z,42.87
2022-11-12T03:09:12.793Z,28.20
2022-11-12T03:11:42.198Z,34.63
2022-11-12T03:14:13.273Z,30.20
2022-11-12T03:16:41.219Z,79.70
2022-11-12T03:19:09.430Z,31.00
2022-11-12T03:21:37.385Z,55.30
2022-11-12T03:24:05.795Z,37.87
2022-11-12T03:26:35.940Z,34.87
2022-11-12T03:29:05.775Z,29.43
2022-11-12T03:31:35.209Z,36.17
2022-11-12T03:34:03.497Z,30.93
2022-11-12T03:36:31.994Z,46.07
2022-11-12T03:38:59.822Z,26.20
2022-11-12T03:41:29.447Z,33.93
2022-11-12T03:43:57.727Z,26.60
2022-11-12T03:46:26.942Z,28.70
2022-11-12T03:48:54.876Z,25.93
2022-11-12T03:51:24.659Z,24.97
2022-11-12T03:53:52.675Z,36.67
2022-11-12T03:56:20.988Z,31.27
2022-11-12T03:58:49.126Z,35.77
2022-11-12T04:01:18.298Z,26.00
2022-11-12T04:03:47.555Z,26.10
2022-11-12T04:06:33.273Z,29.07
2022-11-12T04:09:01.164Z,32.73
2022-11-12T04:11:29.106Z,32.10
2022-11-12T04:13:57.105Z,22.43
2022-11-12T04:16:42.544Z,24.37
2022-11-12T04:19:30.727Z,27.10
2022-11-12T04:22:02.961Z,39.53
2022-11-12T04:24:50.576Z,20.67
2022-11-12T04:27:20.237Z,29.10
2022-11-12T04:30:06.985Z,23.47
2022-11-12T04:32:37.069Z,29.00
2022-11-12T04:35:08.039Z,21.53
2022-11-12T04:37:47.828Z,35.90
2022-11-12T04:40:33.983Z,41.00
2022-11-12T04:43:19.975Z,29.00
2022-11-12T04:45:51.190Z,23.07
2022-11-12T04:48:19.884Z,22.27
2022-11-12T04:50:53.886Z,24.47
2022-11-12T04:53:22.174Z,20.20
2022-11-12T04:55:50.989Z,30.80
2022-11-12T04:58:19.017Z,18.43
2022-11-12T05:00:47.047Z,16.13
2022-11-12T05:03:14.931Z,16.67
2022-11-12T05:05:43.215Z,15.20
2022-11-12T05:08:12.506Z,11.57
2022-11-12T05:10:40.461Z,21.23
2022-11-12T05:13:08.338Z,21.73
2022-11-12T05:15:36.224Z,20.57
2022-11-12T05:18:04.268Z,25.87
2022-11-12T05:20:32.234Z,18.00
2022-11-12T05:23:06.912Z,16.63
2022-11-12T05:25:37.501Z,14.83
2022-11-12T05:28:07.093Z,13.87
2022-11-12T05:30:36.513Z,13.90
2022-11-12T05:33:04.559Z,15.70
2022-11-12T05:35:32.477Z,31.73
2022-11-12T05:38:00.425Z,24.87
2022-11-12T05:40:28.313Z,22.80
2022-11-12T05:42:57.642Z,22.77
2022-11-12T05:45:25.559Z,16.67
2022-11-12T05:47:53.450Z,37.70
2022-11-12T05:50:21.332Z,20.40
2022-11-12T05:52:49.220Z,22.30
2022-11-12T05:55:17.210Z,15.80
2022-11-12T05:57:45.693Z,14.37
2022-11-12T06:00:15.995Z,17.23
2022-11-12T06:02:44.091Z,28.10
2022-11-12T06:05:12.008Z,20.33
2022-11-12T06:07:40.796Z,22.90
2022-11-12T06:10:09.689Z,21.17
2022-11-12T06:12:37.564Z,23.23
2022-11-12T06:15:06.193Z,14.57
2022-11-12T06:17:35.445Z,25.40
2022-11-12T06:20:03.381Z,24.57
2022-11-12T06:22:31.295Z,27.87
2022-11-12T06:24:59.200Z,16.47
2022-11-12T06:27:27.105Z,17.57
2022-11-12T06:29:54.986Z,21.43
2022-11-12T06:32:22.874Z,20.07
2022-11-12T06:34:53.591Z,29.53
2022-11-12T06:37:22.050Z,24.57
2022-11-12T06:39:50.091Z,21.80
2022-11-12T06:42:18.299Z,24.53
2022-11-12T06:44:46.180Z,30.77
2022-11-12T06:47:14.278Z,32.17
2022-11-12T06:49:42.495Z,40.53
2022-11-12T06:52:16.413Z,21.50
2022-11-12T06:54:44.739Z,25.90
2022-11-12T06:57:13.007Z,24.00
2022-11-12T06:59:41.088Z,26.73
2022-11-12T07:02:09.048Z,22.07
2022-11-12T07:04:36.966Z,21.00
2022-11-12T07:07:10.248Z,27.40
2022-11-12T07:09:40.091Z,22.97
2022-11-12T07:14:33.877Z,20.07
2022-11-12T07:17:01.919Z,29.70
2022-11-12T07:19:29.877Z,19.50
2022-11-12T07:21:57.763Z,28.10
2022-11-12T07:24:25.668Z,21.70
2022-11-12T07:26:55.021Z,23.70
2022-11-12T07:29:42.609Z,25.33
2022-11-12T07:32:10.865Z,25.57
2022-11-12T07:34:38.752Z,20.87
2022-11-12T07:37:06.659Z,24.80
2022-11-12T07:39:34.509Z,24.60
2022-11-12T07:42:04.139Z,28.37
2022-11-12T07:44:35.216Z,31.90
2022-11-12T07:47:03.462Z,34.53
2022-11-12T07:49:31.379Z,32.87
2022-11-12T07:51:59.270Z,28.27
2022-11-12T07:54:27.911Z,31.80
2022-11-12T07:56:55.767Z,26.90
2022-11-12T07:59:25.004Z,28.10
2022-11-12T08:01:53.080Z,26.67
2022-11-12T08:04:21.233Z,33.10
2022-11-12T08:06:49.832Z,33.07
2022-11-12T08:09:18.177Z,30.07
2022-11-12T08:11:49.033Z,27.43
2022-11-12T08:14:18.955Z,25.63
2022-11-12T08:16:48.487Z,31.63
2022-11-12T08:19:16.496Z,32.33
2022-11-12T08:21:44.683Z,49.50
2022-11-12T08:24:15.405Z,36.70
2022-11-12T08:26:43.399Z,27.90
2022-11-12T08:29:11.460Z,30.03
2022-11-12T08:31:39.773Z,40.97
2022-11-12T08:34:21.413Z,37.60
2022-11-12T08:36:50.483Z,30.77
2022-11-12T08:39:18.429Z,39.07
2022-11-12T08:41:49.116Z,23.23
2022-11-12T08:44:17.032Z,31.17
2022-11-12T08:46:44.962Z,39.97
2022-11-12T08:49:14.224Z,34.13
2022-11-12T08:51:42.329Z,31.50
2022-11-12T08:54:10.402Z,38.70
2022-11-12T08:56:38.334Z,30.57
2022-11-12T08:59:07.503Z,27.70
2022-11-12T09:01:35.718Z,28.97
2022-11-12T09:04:03.781Z,26.87
2022-11-12T09:06:34.116Z,27.80
2022-11-12T09:09:02.143Z,32.73
2022-11-12T09:11:30.286Z,31.07
2022-11-12T09:13:58.323Z,33.43
2022-11-12T09:16:26.282Z,28.40
2022-11-12T09:18:54.164Z,24.50
2022-11-12T09:21:24.741Z,28.13
2022-11-12T09:23:54.079Z,27.50
2022-11-12T09:26:21.970Z,24.73
2022-11-12T09:28:49.913Z,25.80
2022-11-12T09:31:17.937Z,27.17
2022-11-12T09:33:45.984Z,28.17
2022-11-12T09:36:13.956Z,24.10
2022-11-12T09:38:41.964Z,25.23
2022-11-12T09:41:33.447Z,25.70
2022-11-12T09:44:05.249Z,24.23
2022-11-12T09:46:40.234Z,24.97
2022-11-12T09:49:15.483Z,22.93
2022-11-12T09:51:49.295Z,25.63
2022-11-12T09:54:26.007Z,28.97
2022-11-12T09:56:55.569Z,28.13
2022-11-12T09:59:25.112Z,27.93
2022-11-12T10:02:06.423Z,25.87
2022-11-12T10:05:04.188Z,30.50
2022-11-12T10:07:43.595Z,29.13
2022-11-12T10:10:16.181Z,34.10
2022-11-12T10:13:06.930Z,29.83
2022-11-12T10:16:10.708Z,30.70
2022-11-12T10:18:49.643Z,29.67
2022-11-12T10:21:27.206Z,24.50
2022-11-12T10:23:55.438Z,25.70
2022-11-12T10:26:25.888Z,28.67
2022-11-12T10:29:04.293Z,29.80
2022-11-12T10:31:32.292Z,30.77
2022-11-12T10:34:17.664Z,31.30
2022-11-12T10:36:49.957Z,27.53
2022-11-12T10:39:38.517Z,25.27
2022-11-12T10:42:08.821Z,24.03
2022-11-12T10:44:42.487Z,27.80
2022-11-12T10:47:26.598Z,28.03
2022-11-12T10:50:05.718Z,24.33
2022-11-12T10:52:33.658Z,21.00
2022-11-12T10:55:08.690Z,21.73
2022-11-12T10:57:36.671Z,20.87
2022-11-12T11:00:18.086Z,19.37
2022-11-12T11:02:52.300Z,20.83
2022-11-12T11:05:35.846Z,21.20
2022-11-12T11:08:07.322Z,20.80
2022-11-12T11:10:37.800Z,21.23
2022-11-12T11:13:21.076Z,21.50
2022-11-12T11:16:01.814Z,20.97
2022-11-12T11:18:31.242Z,18.33
2022-11-12T11:21:22.220Z,18.97
2022-11-12T11:23:57.525Z,21.03
2022-11-12T11:26:34.148Z,18.90
2022-11-12T11:29:21.855Z,21.70
2022-11-12T11:31:57.415Z,21.43
2022-11-12T11:34:38.445Z,19.77
2022-11-12T11:37:17.205Z,18.67
2022-11-12T11:39:54.562Z,19.60
2022-11-12T11:42:41.089Z,21.90
2022-11-12T11:45:16.262Z,20.47
2022-11-12T11:48:02.503Z,22.33
2022-11-12T11:50:34.796Z,22.70
2022-11-12T11:53:16.920Z,21.17
2022-11-12T11:55:54.284Z,24.70
2022-11-12T11:58:56.007Z,24.17
2022-11-12T12:01:31.903Z,21.00
2022-11-12T12:04:28.362Z,21.87
2022-11-12T12:07:09.423Z,22.87
2022-11-12T12:09:43.868Z,21.97
2022-11-12T12:12:23.779Z,26.23
2022-11-12T12:14:59.247Z,25.93
2022-11-12T12:17:43.213Z,27.40
2022-11-12T12:20:20.644Z,28.83
2022-11-12T12:22:53.077Z,24.20
2022-11-12T12:25:26.250Z,24.97
2022-11-12T12:28:00.924Z,22.17
2022-11-12T12:30:33.896Z,20.60
2022-11-12T12:33:19.624Z,22.77
2022-11-12T12:35:55.288Z,23.10
2022-11-12T12:38:29.841Z,22.47
2022-11-12T12:41:05.237Z,24.07
2022-11-12T12:43:38.137Z,21.90
2022-11-12T12:46:08.027Z,21.40
2022-11-12T12:48:39.076Z,26.87
2022-11-12T12:51:08.620Z,21.87
2022-11-12T12:53:37.366Z,21.87
2022-11-12T12:56:07.173Z,23.90
2022-11-12T12:58:44.010Z,22.83
2022-11-12T13:01:28.147Z,19.87
2022-11-12T13:03:59.387Z,20.53
2022-11-12T13:06:35.130Z,25.83
2022-11-12T13:09:07.122Z,23.97
2022-11-12T13:14:52.400Z,24.67
2022-11-12T13:17:58.939Z,23.50
2022-11-12T13:20:42.890Z,24.27
2022-11-12T13:23:59.813Z,23.20
2022-11-12T13:26:49.826Z,28.70
2022-11-12T13:29:45.441Z,24.00
2022-11-12T13:32:30.757Z,26.33
2022-11-12T13:35:29.212Z,24.27
2022-11-12T13:38:00.526Z,24.10
2022-11-12T13:40:40.357Z,25.43
2022-11-12T13:43:17.104Z,24.90
2022-11-12T13:45:49.263Z,24.50
2022-11-12T13:48:26.368Z,25.97
2022-11-12T13:50:57.352Z,26.47
2022-11-12T13:53:28.931Z,25.03
2022-11-12T13:55:58.277Z,28.70
2022-11-12T13:58:30.646Z,26.97
2022-11-12T14:01:01.055Z,25.53
2022-11-12T14:03:32.239Z,26.40
2022-11-12T14:06:06.149Z,26.83
2022-11-12T14:09:14.025Z,24.30
2022-11-12T14:14:51.865Z,29.60
2022-11-12T14:17:30.350Z,27.03
2022-11-12T14:20:26.031Z,27.77
2022-11-12T14:22:54.780Z,30.20
2022-11-12T14:25:24.745Z,30.93
2022-11-12T14:27:57.659Z,30.70
2022-11-12T14:30:28.439Z,32.97
2022-11-12T14:33:00.371Z,29.60
2022-11-12T14:35:35.247Z,36.93
2022-11-12T14:38:22.525Z,34.43
2022-11-12T14:40:54.669Z,34.17
2022-11-12T14:43:33.308Z,31.30
2022-11-12T14:46:03.749Z,33.13
2022-11-12T14:48:38.171Z,35.77
2022-11-12T14:51:12.281Z,29.33
2022-11-12T14:53:44.768Z,33.03
2022-11-12T14:56:22.461Z,34.00
2022-11-12T14:58:57.988Z,31.27
2022-11-12T15:02:13.907Z,33.37
2022-11-12T15:04:20.925Z,32.30
2022-11-12T15:06:55.940Z,34.50
2022-11-12T15:09:35.861Z,37.07
2022-11-12T15:12:06.009Z,46.53
2022-11-12T15:14:36.201Z,38.37
2022-11-12T15:17:05.666Z,35.30
2022-11-12T15:19:35.075Z,35.00
2022-11-12T15:22:04.925Z,36.37
2022-11-12T15:24:34.477Z,39.63
2022-11-12T15:27:23.212Z,34.47
2022-11-12T15:30:16.096Z,43.13
2022-11-12T15:32:44.882Z,38.17
2022-11-12T15:35:38.073Z,34.07
2022-11-12T15:38:08.865Z,38.43
2022-11-12T15:40:44.843Z,38.30
2022-11-12T15:43:19.122Z,38.83
2022-11-12T15:45:51.613Z,39.13
2022-11-12T15:48:19.794Z,43.43
2022-11-12T15:50:49.113Z,43.77
2022-11-12T15:53:21.158Z,40.27
2022-11-12T15:55:49.505Z,47.00
2022-11-12T15:58:31.637Z,40.73
2022-11-12T16:01:01.161Z,52.00
2022-11-12T16:03:29.433Z,47.40
2022-11-12T16:05:57.903Z,45.80
2022-11-12T16:08:30.164Z,56.70
2022-11-12T16:10:58.275Z,51.40
2022-11-12T16:13:31.484Z,48.10
2022-11-12T16:16:03.158Z,56.90
2022-11-12T16:18:31.359Z,53.10
2022-11-12T16:20:59.285Z,46.67
2022-11-12T16:23:27.507Z,42.87
2022-11-12T16:25:55.827Z,46.17
2022-11-12T16:28:23.852Z,53.60
2022-11-12T16:30:51.718Z,63.57
2022-11-12T16:33:20.995Z,67.97
2022-11-12T16:35:49.034Z,52.73
2022-11-12T16:38:18.185Z,50.13
2022-11-12T16:40:46.545Z,44.00
2022-11-12T16:43:14.817Z,47.20
2022-11-12T16:45:44.579Z,52.03
2022-11-12T16:48:15.409Z,48.00
2022-11-12T16:50:44.624Z,48.53
2022-11-12T16:53:12.514Z,47.70
2022-11-12T16:55:40.576Z,44.27
2022-11-12T16:58:08.668Z,45.10
2022-11-12T17:00:36.581Z,44.97
2022-11-12T17:03:04.574Z,46.67
2022-11-12T17:05:32.481Z,50.10
2022-11-12T17:08:01.728Z,48.27
2022-11-12T17:10:29.660Z,49.33
2022-11-12T17:12:57.654Z,45.47
2022-11-12T17:15:25.569Z,48.43
2022-11-12T17:17:55.023Z,52.57
2022-11-12T17:20:23.124Z,51.33
2022-11-12T17:22:51.005Z,49.97
2022-11-12T17:25:20.334Z,53.77
2022-11-12T17:27:49.934Z,49.30
2022-11-12T17:30:18.715Z,52.37
2022-11-12T17:32:46.783Z,45.57
2022-11-12T17:35:14.839Z,41.23
2022-11-12T17:37:42.787Z,39.30
2022-11-12T17:40:11.801Z,39.97
2022-11-12T17:42:43.783Z,40.43
2022-11-12T17:45:11.928Z,44.10
2022-11-12T17:47:40.746Z,40.03
2022-11-12T17:50:09.887Z,41.00
2022-11-12T17:52:37.755Z,41.47
2022-11-12T17:55:06.426Z,51.17
2022-11-12T17:57:34.385Z,54.57
2022-11-12T18:00:04.324Z,50.67
2022-11-12T18:02:32.198Z,50.67
2022-11-12T18:05:01.412Z,48.23
2022-11-12T18:07:29.777Z,47.40
2022-11-12T18:09:57.792Z,49.13
2022-11-12T18:12:25.773Z,49.70
2022-11-12T18:14:53.751Z,43.77
2022-11-12T18:17:23.107Z,50.27
2022-11-12T18:19:51.007Z,50.20
2022-11-12T18:22:20.598Z,60.10
2022-11-12T18:24:48.885Z,55.03
2022-11-12T18:27:16.828Z,57.63
2022-11-12T18:29:45.636Z,51.37
2022-11-12T18:32:13.614Z,49.50
2022-11-12T18:34:45.034Z,54.27
2022-11-12T18:37:13.235Z,42.87
2022-11-12T18:39:41.362Z,52.37
2022-11-12T18:42:09.320Z,47.80
2022-11-12T18:44:37.477Z,50.20
2022-11-12T18:47:05.710Z,55.60
2022-11-12T18:49:33.758Z,85.73
2022-11-12T18:52:03.810Z,67.23
2022-11-12T18:54:31.774Z,48.77
2022-11-12T18:56:59.678Z,72.70
2022-11-12T18:59:30.768Z,46.13
2022-11-12T19:01:58.814Z,67.53
2022-11-12T19:04:27.181Z,46.07
2022-11-12T19:06:55.122Z,56.30
2022-11-12T19:09:24.618Z,43.77
2022-11-12T19:11:52.828Z,38.13
2022-11-12T19:14:20.757Z,48.00
2022-11-12T19:16:51.799Z,55.47
2022-11-12T19:19:19.715Z,52.00
2022-11-12T19:21:48.816Z,40.17
2022-11-12T19:24:19.800Z,38.13
2022-11-12T19:26:49.074Z,54.50
2022-11-12T19:29:17.071Z,41.30
2022-11-12T19:31:47.800Z,65.27
2022-11-12T19:34:15.830Z,39.97
2022-11-12T19:36:44.014Z,45.87
2022-11-12T19:39:11.981Z,42.00
2022-11-12T19:41:39.858Z,35.77
2022-11-12T19:44:12.621Z,54.63
2022-11-12T19:46:43.780Z,34.00
2022-11-12T19:49:11.945Z,54.53
2022-11-12T19:51:40.241Z,37.37
2022-11-12T19:54:12.556Z,51.93
2022-11-12T19:56:42.987Z,37.37
2022-11-12T19:59:12.564Z,44.17
2022-11-12T20:01:47.810Z,33.77
2022-11-12T20:04:23.923Z,38.07
2022-11-12T20:06:57.826Z,44.07
2022-11-12T20:09:25.884Z,42.93
2022-11-12T20:11:54.143Z,42.13
2022-11-12T20:14:23.638Z,28.93
2022-11-12T20:16:51.954Z,34.87
2022-11-12T20:19:20.092Z,54.63
2022-11-12T20:21:48.407Z,54.83
2022-11-12T20:24:16.440Z,34.57
2022-11-12T20:26:44.631Z,39.50
2022-11-12T20:29:12.773Z,85.13
2022-11-12T20:31:43.114Z,32.57
2022-11-12T20:34:12.917Z,43.60
2022-11-12T20:36:40.937Z,35.53
2022-11-12T20:39:08.928Z,37.43
2022-11-12T20:41:37.522Z,48.43
2022-11-12T20:44:05.963Z,67.77
2022-11-12T20:46:34.503Z,43.67
2022-11-12T20:49:06.578Z,43.50
2022-11-12T20:51:35.097Z,63.77
2022-11-12T20:54:03.265Z,38.23
2022-11-12T20:56:32.271Z,42.03
2022-11-12T20:59:01.204Z,37.93
2022-11-12T21:01:31.135Z,49.43
2022-11-12T21:03:59.545Z,77.97
2022-11-12T21:06:30.585Z,27.97
2022-11-12T21:09:06.570Z,45.23
2022-11-12T21:11:34.864Z,38.83
2022-11-12T21:14:15.157Z,38.73
2022-11-12T21:16:43.159Z,48.20
2022-11-12T21:19:13.605Z,27.57
2022-11-12T21:21:42.867Z,34.37
2022-11-12T21:24:13.334Z,41.43
2022-11-12T21:26:41.277Z,33.53
2022-11-12T21:29:09.210Z,39.33
2022-11-12T21:31:37.274Z,46.70
2022-11-12T21:34:07.009Z,67.77
2022-11-12T21:36:35.458Z,63.77
2022-11-12T21:39:05.713Z,36.47
2022-11-12T21:41:33.707Z,39.23
2022-11-12T21:44:01.564Z,65.70
2022-11-12T21:46:31.406Z,36.10
2022-11-12T21:48:59.370Z,38.77
2022-11-12T21:51:29.869Z,48.17
2022-11-12T21:53:59.652Z,40.10
2022-11-12T21:56:30.008Z,42.53
2022-11-12T21:59:00.436Z,44.50
2022-11-12T22:01:30.175Z,35.43
2022-11-12T22:03:59.508Z,41.17
2022-11-12T22:06:29.527Z,43.33
2022-11-12T22:08:58.692Z,46.43
2022-11-12T22:11:30.128Z,26.57
2022-11-12T22:13:58.345Z,71.90
2022-11-12T22:16:29.303Z,35.07
2022-11-12T22:18:58.512Z,33.27
2022-11-12T22:21:28.688Z,32.70
2022-11-12T22:23:57.562Z,39.23
2022-11-12T22:26:26.873Z,37.30
2022-11-12T22:28:58.078Z,43.17
2022-11-12T22:31:28.145Z,62.60
2022-11-12T22:33:57.058Z,56.13
2022-11-12T22:36:27.673Z,37.53
2022-11-12T22:38:56.007Z,42.60
2022-11-12T22:41:25.545Z,47.43
2022-11-12T22:43:56.344Z,32.03
2022-11-12T22:46:26.119Z,27.87
2022-11-12T22:48:54.762Z,24.67
2022-11-12T22:51:24.426Z,47.50
2022-11-12T22:53:55.201Z,25.70
2022-11-12T22:56:24.382Z,30.80
2022-11-12T22:58:52.610Z,32.87
2022-11-12T23:01:23.684Z,36.43
2022-11-12T23:03:58.552Z,29.40
2022-11-12T23:06:27.191Z,30.03
2022-11-12T23:08:56.170Z,59.20
2022-11-12T23:11:26.041Z,34.53
2022-11-12T23:13:54.879Z,22.23
2022-11-12T23:16:26.172Z,20.83
2022-11-12T23:18:54.974Z,26.27
2022-11-12T23:21:25.385Z,39.37
2022-11-12T23:23:53.505Z,30.90
2022-11-12T23:26:23.071Z,45.00
2022-11-12T23:28:52.006Z,53.83
2022-11-12T23:31:22.028Z,49.33
2022-11-12T23:33:53.472Z,29.73
2022-11-12T23:36:22.222Z,52.83
2022-11-12T23:38:51.102Z,51.77
2022-11-12T23:41:23.469Z,41.33
2022-11-12T23:43:51.706Z,49.87
2022-11-12T23:46:19.931Z,48.27
2022-11-12T23:48:47.965Z,33.67
2022-11-12T23:51:19.424Z,21.63
2022-11-12T23:53:50.653Z,27.27
2022-11-12T23:56:20.664Z,39.93
2022-11-12T23:58:49.072Z,33.73
